Keytesville, Missouri
Current Conditions -  °F | °C
As of 5:55 PM on Monday 20 Oct 2014 (Local Time) from KVER Reporting Station
Clear Clear  
Wind Chill: 69°   Ceiling: Unl
Heat Index: 69°   Visibility: 10mi
Dew Point: 40°   Wind: 0mph
Humidity: 34%   Direction: NA
Pressure: 30.01"   Gusts: NA
Location:  39.43°N, 92.94°W
Report Text: KVER 202255Z AUTO 00000KT 10SM CLR 21/04 A3001 RMK AO2 T02080042
Loading
Personal Weather Stations






























Interactive Weather Map New forecast layout! Learn more

10-Day Weather Forecast

Advertisements
Track Severe Weather on mobile